createdAt,value
2022-11-17T00:02:18.807Z,4.00
2022-11-17T00:04:45.757Z,4.00
2022-11-17T00:07:12.626Z,4.00
2022-11-17T00:09:39.460Z,4.00
2022-11-17T00:12:29.899Z,4.00
2022-11-17T00:14:59.610Z,4.10
2022-11-17T00:17:26.401Z,4.10
2022-11-17T00:20:11.845Z,4.10
2022-11-17T00:22:38.694Z,4.10
2022-11-17T00:25:05.685Z,4.10
2022-11-17T00:27:32.474Z,4.20
2022-11-17T00:29:59.272Z,4.10
2022-11-17T00:32:44.979Z,4.20
2022-11-17T00:35:11.797Z,4.20
2022-11-17T00:38:04.161Z,4.20
2022-11-17T00:40:31.150Z,4.30
2022-11-17T00:42:57.973Z,4.30
2022-11-17T00:45:24.828Z,4.30
2022-11-17T00:47:51.618Z,4.20
2022-11-17T00:50:18.371Z,4.20
2022-11-17T00:52:45.210Z,4.20
2022-11-17T00:55:12.081Z,4.20
2022-11-17T00:57:38.911Z,4.20
2022-11-17T01:00:06.333Z,4.20
2022-11-17T01:02:33.146Z,4.20
2022-11-17T01:04:59.987Z,4.20
2022-11-17T01:07:26.816Z,4.20
2022-11-17T01:09:53.647Z,4.20
2022-11-17T01:12:20.486Z,4.10
2022-11-17T01:14:47.325Z,4.10
2022-11-17T01:17:14.150Z,4.10
2022-11-17T01:19:41.067Z,4.10
2022-11-17T01:22:07.827Z,4.10
2022-11-17T01:24:34.700Z,4.10
2022-11-17T01:27:01.515Z,4.10
2022-11-17T01:29:28.387Z,4.10
2022-11-17T01:31:55.148Z,4.20
2022-11-17T01:34:21.923Z,4.20
2022-11-17T01:37:07.322Z,4.20
2022-11-17T01:39:34.152Z,4.20
2022-11-17T01:42:10.040Z,4.20
2022-11-17T01:45:02.460Z,4.20
2022-11-17T01:47:49.711Z,4.20
2022-11-17T01:50:40.512Z,4.20
2022-11-17T01:53:11.369Z,4.20
2022-11-17T01:55:42.806Z,4.20
2022-11-17T01:58:21.142Z,4.10
2022-11-17T02:00:48.795Z,4.10
2022-11-17T02:03:15.686Z,4.00
2022-11-17T02:05:51.808Z,4.00
2022-11-17T02:08:20.727Z,3.90
2022-11-17T02:10:51.587Z,3.80
2022-11-17T02:13:21.751Z,3.80
2022-11-17T02:15:48.806Z,3.80
2022-11-17T02:18:16.755Z,3.70
2022-11-17T02:21:04.647Z,3.70
2022-11-17T02:23:50.251Z,3.70
2022-11-17T02:26:54.821Z,3.70
2022-11-17T02:29:29.492Z,3.60
2022-11-17T02:32:18.968Z,3.60
2022-11-17T02:34:50.506Z,3.60
2022-11-17T02:37:31.543Z,3.60
2022-11-17T02:40:13.400Z,3.50
2022-11-17T02:43:05.550Z,3.50
2022-11-17T02:46:04.320Z,3.50
2022-11-17T02:48:44.867Z,3.50
2022-11-17T02:51:20.901Z,3.50
2022-11-17T02:53:51.307Z,3.50
2022-11-17T02:56:18.554Z,3.50
2022-11-17T02:58:47.529Z,3.40
2022-11-17T03:01:56.006Z,3.40
2022-11-17T03:04:43.902Z,3.40
2022-11-17T03:07:29.460Z,3.30
2022-11-17T03:10:20.468Z,3.30
2022-11-17T03:13:09.827Z,3.30
2022-11-17T03:15:36.599Z,3.30
2022-11-17T03:18:10.772Z,3.20
2022-11-17T03:20:44.629Z,3.20
2022-11-17T03:23:19.264Z,3.20
2022-11-17T03:25:49.242Z,3.20
2022-11-17T03:28:17.093Z,3.20
2022-11-17T03:30:46.631Z,3.20
2022-11-17T03:33:17.127Z,3.20
2022-11-17T03:35:50.871Z,3.20
2022-11-17T03:38:19.870Z,3.20
2022-11-17T03:40:47.647Z,3.20
2022-11-17T03:43:16.601Z,3.20
2022-11-17T03:45:51.456Z,3.20
2022-11-17T03:48:28.711Z,3.20
2022-11-17T03:51:13.372Z,3.20
2022-11-17T03:53:40.608Z,3.30
2022-11-17T03:56:22.610Z,3.30
2022-11-17T03:59:01.456Z,3.30
2022-11-17T04:01:30.186Z,3.30
2022-11-17T04:03:57.046Z,3.30
2022-11-17T04:06:23.853Z,3.30
2022-11-17T04:08:50.643Z,3.30
2022-11-17T04:11:36.323Z,3.30
2022-11-17T04:14:21.744Z,3.30
2022-11-17T04:16:48.571Z,3.30
2022-11-17T04:19:15.375Z,3.30
2022-11-17T04:21:42.221Z,3.40
2022-11-17T04:24:09.259Z,3.30
2022-11-17T04:26:54.689Z,3.40
2022-11-17T04:29:21.617Z,3.40
2022-11-17T04:31:48.413Z,3.40
2022-11-17T04:34:15.816Z,3.40
2022-11-17T04:36:46.443Z,3.40
2022-11-17T04:39:14.849Z,3.40
2022-11-17T04:41:54.345Z,3.40
2022-11-17T04:44:26.406Z,3.40
2022-11-17T04:46:54.554Z,3.40
2022-11-17T04:49:22.791Z,3.50
2022-11-17T04:51:49.991Z,3.50
2022-11-17T04:54:19.093Z,3.50
2022-11-17T04:56:46.480Z,3.50
2022-11-17T04:59:13.320Z,3.40
2022-11-17T05:01:40.311Z,3.40
2022-11-17T05:04:09.238Z,3.40
2022-11-17T05:06:45.141Z,3.40
2022-11-17T05:09:16.695Z,3.40
2022-11-17T05:12:02.897Z,3.30
2022-11-17T05:14:30.063Z,3.30
2022-11-17T05:17:11.160Z,3.30
2022-11-17T05:19:44.415Z,3.20
2022-11-17T05:22:36.937Z,3.30
2022-11-17T05:25:05.241Z,3.20
2022-11-17T05:27:33.714Z,3.20
2022-11-17T05:30:01.586Z,3.20
2022-11-17T05:32:28.576Z,3.20
2022-11-17T05:34:55.522Z,3.20
2022-11-17T05:37:23.812Z,3.20
2022-11-17T05:39:50.585Z,3.10
2022-11-17T05:42:17.394Z,3.20
2022-11-17T05:44:44.228Z,3.20
2022-11-17T05:47:11.041Z,3.20
2022-11-17T05:49:37.966Z,3.20
2022-11-17T05:52:04.909Z,3.20
2022-11-17T05:54:31.741Z,3.20
2022-11-17T05:57:03.083Z,3.20
2022-11-17T05:59:51.784Z,3.20
2022-11-17T06:02:27.989Z,3.20
2022-11-17T06:04:54.756Z,3.20
2022-11-17T06:07:22.253Z,3.20
2022-11-17T06:09:49.559Z,3.20
2022-11-17T06:12:16.384Z,3.20
2022-11-17T06:14:43.208Z,3.10
2022-11-17T06:17:25.876Z,3.20
2022-11-17T06:20:02.638Z,3.10
2022-11-17T06:22:30.129Z,3.10
2022-11-17T06:24:57.346Z,3.10
2022-11-17T06:27:25.855Z,3.10
2022-11-17T06:29:55.198Z,3.10
2022-11-17T06:32:22.255Z,3.10
2022-11-17T06:34:55.699Z,3.10
2022-11-17T06:37:23.913Z,3.10
2022-11-17T06:39:50.776Z,3.10
2022-11-17T06:42:17.584Z,3.10
2022-11-17T06:44:44.460Z,3.10
2022-11-17T06:47:11.249Z,3.10
2022-11-17T06:49:38.159Z,3.10
2022-11-17T06:52:05.123Z,3.10
2022-11-17T06:54:32.592Z,3.10
2022-11-17T06:56:59.431Z,3.10
2022-11-17T06:59:26.338Z,3.10
2022-11-17T07:01:53.203Z,3.10
2022-11-17T07:04:20.022Z,3.10
2022-11-17T07:06:46.863Z,3.10
2022-11-17T07:09:13.737Z,3.10
2022-11-17T07:11:40.532Z,3.10
2022-11-17T07:14:07.396Z,3.10
2022-11-17T07:16:34.315Z,3.10
2022-11-17T07:19:03.683Z,3.20
2022-11-17T07:21:30.770Z,3.10
2022-11-17T07:23:57.851Z,3.20
2022-11-17T07:26:25.316Z,3.20
2022-11-17T07:28:52.097Z,3.20
2022-11-17T07:31:19.135Z,3.30
2022-11-17T07:33:45.960Z,3.30
2022-11-17T07:36:14.643Z,3.30
2022-11-17T07:38:41.471Z,3.30
2022-11-17T07:41:10.144Z,3.30
2022-11-17T07:43:37.190Z,3.30
2022-11-17T07:46:05.490Z,3.30
2022-11-17T07:48:32.909Z,3.30
2022-11-17T07:51:00.722Z,3.30
2022-11-17T07:53:27.861Z,3.30
2022-11-17T07:55:55.750Z,3.30
2022-11-17T07:58:25.315Z,3.40
2022-11-17T08:00:52.179Z,3.40
2022-11-17T08:03:19.172Z,3.40
2022-11-17T08:05:46.165Z,3.40
2022-11-17T08:08:14.348Z,3.40
2022-11-17T08:10:42.927Z,3.40
2022-11-17T08:13:09.967Z,3.40
2022-11-17T08:15:36.793Z,3.40
2022-11-17T08:18:04.712Z,3.40
2022-11-17T08:20:31.776Z,3.40
2022-11-17T08:22:58.587Z,3.40
2022-11-17T08:25:26.827Z,3.40
2022-11-17T08:27:58.129Z,3.50
2022-11-17T08:30:26.068Z,3.50
2022-11-17T08:32:54.622Z,3.60
2022-11-17T08:35:25.319Z,3.60
2022-11-17T08:37:52.822Z,3.60
2022-11-17T08:40:20.384Z,3.60
2022-11-17T08:42:47.553Z,3.70
2022-11-17T08:45:14.488Z,3.60
2022-11-17T08:47:41.564Z,3.70
2022-11-17T08:50:09.190Z,3.70
2022-11-17T08:52:36.100Z,3.70
2022-11-17T08:55:06.387Z,3.70
2022-11-17T08:57:33.644Z,3.80
2022-11-17T09:00:01.189Z,3.80
2022-11-17T09:02:28.765Z,3.90
2022-11-17T09:04:55.931Z,3.90
2022-11-17T09:07:23.045Z,3.90
2022-11-17T09:09:50.015Z,4.00
2022-11-17T09:12:18.511Z,4.00
2022-11-17T09:14:45.289Z,4.00
2022-11-17T09:17:12.390Z,4.00
2022-11-17T09:19:39.181Z,4.10
2022-11-17T09:22:06.457Z,4.00
2022-11-17T09:24:33.336Z,4.10
2022-11-17T09:27:03.099Z,4.10
2022-11-17T09:29:30.775Z,4.00
2022-11-17T09:31:57.873Z,4.00
2022-11-17T09:34:25.152Z,4.00
2022-11-17T09:36:54.170Z,4.00
2022-11-17T09:39:21.559Z,4.00
2022-11-17T09:41:50.251Z,4.00
2022-11-17T09:44:39.936Z,4.00
2022-11-17T09:47:41.248Z,4.10
2022-11-17T09:50:26.442Z,4.10
2022-11-17T09:52:59.188Z,4.10
2022-11-17T09:55:40.673Z,4.10
2022-11-17T09:58:41.645Z,4.10
2022-11-17T10:01:20.053Z,4.20
2022-11-17T10:03:48.967Z,4.20
2022-11-17T10:06:28.624Z,4.20
2022-11-17T10:09:07.693Z,4.20
2022-11-17T10:11:38.045Z,4.20
2022-11-17T10:14:07.826Z,4.20
2022-11-17T10:16:35.872Z,4.20
2022-11-17T10:19:29.374Z,4.20
2022-11-17T10:22:02.389Z,4.10
2022-11-17T10:24:34.200Z,4.10
2022-11-17T10:27:02.976Z,4.10
2022-11-17T10:29:30.116Z,4.20
2022-11-17T10:31:58.080Z,4.10
2022-11-17T10:34:40.709Z,4.20
2022-11-17T10:37:15.194Z,4.10
2022-11-17T10:39:43.048Z,4.20
2022-11-17T10:42:28.250Z,4.20
2022-11-17T10:45:00.282Z,4.20
2022-11-17T10:47:31.702Z,4.10
2022-11-17T10:50:25.945Z,4.10
2022-11-17T10:52:54.279Z,4.10
2022-11-17T10:55:31.919Z,4.10
2022-11-17T10:58:03.065Z,4.10
2022-11-17T11:00:37.033Z,4.10
2022-11-17T11:03:20.398Z,4.10
2022-11-17T11:06:14.580Z,4.10
2022-11-17T11:08:55.237Z,4.10
2022-11-17T11:11:42.396Z,4.10
2022-11-17T11:14:30.890Z,4.10
2022-11-17T11:16:57.834Z,4.10
2022-11-17T11:19:25.283Z,4.10
2022-11-17T11:22:21.216Z,4.10
2022-11-17T11:24:57.966Z,4.10
2022-11-17T11:27:56.052Z,4.10
2022-11-17T11:30:23.025Z,4.10
2022-11-17T11:33:38.394Z,4.10
2022-11-17T11:36:33.213Z,4.20
2022-11-17T11:39:37.194Z,4.20
2022-11-17T11:42:22.728Z,4.10
2022-11-17T11:45:11.878Z,4.20
2022-11-17T11:48:05.688Z,4.20
2022-11-17T11:50:41.618Z,4.20
2022-11-17T11:53:24.881Z,4.30
2022-11-17T11:56:07.578Z,4.30
2022-11-17T11:58:34.768Z,4.40
2022-11-17T12:01:05.806Z,4.40
2022-11-17T12:03:45.504Z,4.40
2022-11-17T12:06:35.288Z,4.40
2022-11-17T12:09:04.930Z,4.40
2022-11-17T12:12:10.546Z,4.40
2022-11-17T12:14:39.111Z,4.40
2022-11-17T12:17:06.266Z,4.40
2022-11-17T12:19:47.668Z,4.40
2022-11-17T12:22:29.421Z,4.40
2022-11-17T12:24:57.784Z,4.40
2022-11-17T12:27:36.283Z,4.40
2022-11-17T12:30:05.740Z,4.40
2022-11-17T12:32:44.368Z,4.40
2022-11-17T12:35:30.340Z,4.40
2022-11-17T12:38:15.296Z,4.40
2022-11-17T12:40:45.613Z,4.40
2022-11-17T12:43:15.291Z,4.40
2022-11-17T12:46:11.340Z,4.30
2022-11-17T12:48:41.234Z,4.30
2022-11-17T12:51:08.031Z,4.30
2022-11-17T12:53:49.998Z,4.30
2022-11-17T12:56:32.523Z,4.30
2022-11-17T12:59:17.937Z,4.30
2022-11-17T13:02:21.036Z,4.30
2022-11-17T13:05:00.817Z,4.30
2022-11-17T13:07:27.787Z,4.30
2022-11-17T13:09:58.280Z,4.30
2022-11-17T13:12:28.095Z,4.30
2022-11-17T13:14:58.785Z,4.30
2022-11-17T13:17:44.004Z,4.30
2022-11-17T13:20:18.495Z,4.30
2022-11-17T13:23:06.455Z,4.30
2022-11-17T13:26:48.517Z,4.30
2022-11-17T13:29:22.565Z,4.30
2022-11-17T13:31:49.325Z,4.30
2022-11-17T13:34:18.783Z,4.30
2022-11-17T13:36:57.220Z,4.30
2022-11-17T13:39:27.911Z,4.30
2022-11-17T13:41:58.368Z,4.30
2022-11-17T13:44:27.298Z,4.30
2022-11-17T13:46:54.436Z,4.30
2022-11-17T13:49:50.626Z,4.30
2022-11-17T13:52:47.027Z,4.20
2022-11-17T13:55:22.555Z,4.20
2022-11-17T13:58:04.031Z,4.20
2022-11-17T14:00:31.681Z,4.20
2022-11-17T14:03:03.895Z,4.20
2022-11-17T14:05:32.901Z,4.20
2022-11-17T14:08:14.031Z,4.20
2022-11-17T14:10:40.938Z,4.20
2022-11-17T14:13:22.058Z,4.10
2022-11-17T14:15:59.897Z,4.10
2022-11-17T14:18:29.155Z,4.10
2022-11-17T14:21:10.078Z,4.10
2022-11-17T14:23:37.375Z,4.10
2022-11-17T14:26:04.626Z,4.10
2022-11-17T14:28:31.470Z,4.10
2022-11-17T14:30:58.447Z,4.10
2022-11-17T14:33:25.703Z,4.10
2022-11-17T14:35:58.736Z,4.10
2022-11-17T14:38:25.583Z,4.10
2022-11-17T14:40:53.718Z,4.10
2022-11-17T14:43:22.279Z,4.10
2022-11-17T14:45:50.128Z,4.10
2022-11-17T14:48:20.271Z,4.10
2022-11-17T14:50:47.696Z,4.10
2022-11-17T14:53:15.126Z,4.00
2022-11-17T14:55:41.895Z,4.10
2022-11-17T14:58:16.086Z,4.00
2022-11-17T15:00:42.905Z,4.10
2022-11-17T15:03:09.735Z,4.00
2022-11-17T15:05:36.649Z,4.00
2022-11-17T15:08:03.525Z,4.00
2022-11-17T15:10:30.316Z,4.00
2022-11-17T15:12:57.235Z,4.00
2022-11-17T15:15:24.041Z,4.00
2022-11-17T15:17:50.946Z,4.00
2022-11-17T15:20:17.909Z,4.00
2022-11-17T15:22:44.704Z,4.00
2022-11-17T15:25:13.141Z,4.00
2022-11-17T15:27:39.954Z,3.90
2022-11-17T15:30:07.529Z,4.00
2022-11-17T15:32:34.407Z,4.00
2022-11-17T15:35:01.234Z,3.90
2022-11-17T15:37:28.513Z,3.90
2022-11-17T15:39:55.283Z,4.00
2022-11-17T15:42:25.199Z,3.90
2022-11-17T15:44:51.985Z,3.90
2022-11-17T15:47:18.797Z,3.90
2022-11-17T15:49:46.754Z,3.90
2022-11-17T15:52:13.614Z,3.90
2022-11-17T15:54:40.400Z,3.90
2022-11-17T15:57:07.276Z,3.90
2022-11-17T15:59:34.076Z,3.90
2022-11-17T16:02:08.541Z,3.90
2022-11-17T16:04:36.245Z,3.90
2022-11-17T16:07:04.340Z,3.90
2022-11-17T16:09:31.202Z,4.00
2022-11-17T16:11:58.751Z,3.90
2022-11-17T16:14:25.598Z,3.90
2022-11-17T16:16:52.485Z,3.90
2022-11-17T16:19:19.402Z,3.90
2022-11-17T16:21:46.547Z,3.90
2022-11-17T16:24:13.829Z,3.90
2022-11-17T16:26:40.873Z,3.90
2022-11-17T16:29:07.870Z,3.90
2022-11-17T16:31:36.534Z,3.90
2022-11-17T16:34:03.323Z,3.90
2022-11-17T16:36:36.296Z,3.90
2022-11-17T16:39:06.136Z,3.90
2022-11-17T16:41:36.256Z,3.90
2022-11-17T16:44:07.254Z,3.90
2022-11-17T16:46:34.357Z,3.90
2022-11-17T16:49:03.748Z,3.90
2022-11-17T16:51:33.902Z,3.90
2022-11-17T16:54:19.675Z,3.90
2022-11-17T16:57:01.702Z,3.90
2022-11-17T16:59:28.900Z,3.90
2022-11-17T17:01:56.835Z,3.80
2022-11-17T17:04:23.657Z,3.90
2022-11-17T17:06:50.656Z,3.90
2022-11-17T17:09:20.644Z,3.90
2022-11-17T17:11:51.591Z,3.90
2022-11-17T17:14:19.874Z,3.80
2022-11-17T17:16:46.742Z,3.80
2022-11-17T17:19:16.756Z,3.80
2022-11-17T17:21:59.944Z,3.80
2022-11-17T17:24:27.309Z,3.70
2022-11-17T17:26:54.285Z,3.70
2022-11-17T17:29:23.272Z,3.60
2022-11-17T17:31:50.046Z,3.60
2022-11-17T17:34:17.031Z,3.60
2022-11-17T17:36:43.883Z,3.50
2022-11-17T17:39:23.041Z,3.50
2022-11-17T17:41:50.197Z,3.50
2022-11-17T17:44:19.021Z,3.40
2022-11-17T17:46:46.559Z,3.40
2022-11-17T17:49:13.533Z,3.40
2022-11-17T17:51:44.060Z,3.40
2022-11-17T17:54:17.042Z,3.30
2022-11-17T17:56:44.372Z,3.30
2022-11-17T17:59:11.187Z,3.30
2022-11-17T18:01:40.628Z,3.30
2022-11-17T18:04:12.646Z,3.30
2022-11-17T18:06:45.908Z,3.30
2022-11-17T18:09:14.621Z,3.30
2022-11-17T18:11:49.563Z,3.30
2022-11-17T18:14:21.034Z,3.20
2022-11-17T18:16:48.057Z,3.20
2022-11-17T18:19:15.783Z,3.20
2022-11-17T18:21:43.416Z,3.20
2022-11-17T18:24:12.068Z,3.20
2022-11-17T18:26:41.015Z,3.20
2022-11-17T18:29:18.543Z,3.20
2022-11-17T18:31:47.485Z,3.10
2022-11-17T18:34:15.454Z,3.10
2022-11-17T18:36:45.811Z,3.10
2022-11-17T18:39:29.335Z,3.10
2022-11-17T18:42:01.325Z,3.10
2022-11-17T18:44:28.173Z,3.10
2022-11-17T18:46:59.641Z,3.00
2022-11-17T18:49:30.337Z,3.00
2022-11-17T18:51:57.295Z,3.00
2022-11-17T18:54:24.158Z,3.00
2022-11-17T18:56:51.038Z,2.90
2022-11-17T18:59:19.932Z,2.90
2022-11-17T19:01:47.079Z,2.90
2022-11-17T19:04:14.636Z,2.90
2022-11-17T19:06:41.659Z,2.90
2022-11-17T19:09:08.677Z,2.90
2022-11-17T19:11:35.706Z,2.90
2022-11-17T19:14:05.133Z,2.90
2022-11-17T19:16:32.544Z,2.90
2022-11-17T19:18:59.651Z,2.90
2022-11-17T19:21:29.302Z,2.90
2022-11-17T19:23:58.462Z,2.90
2022-11-17T19:26:27.427Z,2.90
2022-11-17T19:28:58.358Z,2.90
2022-11-17T19:31:26.615Z,2.90
2022-11-17T19:33:54.420Z,2.90
2022-11-17T19:36:24.335Z,2.90
2022-11-17T19:38:53.589Z,2.90
2022-11-17T19:41:23.567Z,3.00
2022-11-17T19:43:58.104Z,3.00
2022-11-17T19:46:26.499Z,3.00
2022-11-17T19:48:53.603Z,3.00
2022-11-17T19:51:22.524Z,3.00
2022-11-17T19:53:51.619Z,3.00
2022-11-17T19:56:20.663Z,3.10
2022-11-17T19:58:48.529Z,3.10
2022-11-17T20:01:19.986Z,3.10
2022-11-17T20:03:48.668Z,3.10
2022-11-17T20:06:20.990Z,3.10
2022-11-17T20:08:48.464Z,3.10
2022-11-17T20:11:20.973Z,3.10
2022-11-17T20:13:48.223Z,3.10
2022-11-17T20:16:19.761Z,3.10
2022-11-17T20:18:50.077Z,3.10
2022-11-17T20:21:17.132Z,3.10
2022-11-17T20:23:44.060Z,3.10
2022-11-17T20:26:13.891Z,3.10
2022-11-17T20:28:41.190Z,3.10
2022-11-17T20:31:09.749Z,3.10
2022-11-17T20:33:56.518Z,3.10
2022-11-17T20:36:24.039Z,3.10
2022-11-17T20:38:55.837Z,3.10
2022-11-17T20:41:23.413Z,3.00
2022-11-17T20:43:56.983Z,3.00
2022-11-17T20:46:27.086Z,3.00
2022-11-17T20:48:54.095Z,3.00
2022-11-17T20:51:23.240Z,3.00
2022-11-17T20:53:50.427Z,2.90
2022-11-17T20:56:17.894Z,2.90
2022-11-17T20:58:45.124Z,2.90
2022-11-17T21:01:12.014Z,2.90
2022-11-17T21:03:39.032Z,3.00
2022-11-17T21:06:06.426Z,3.00
2022-11-17T21:08:35.507Z,3.00
2022-11-17T21:11:08.131Z,3.00
2022-11-17T21:13:38.845Z,3.00
2022-11-17T21:16:12.833Z,3.00
2022-11-17T21:18:46.686Z,3.00
2022-11-17T21:21:13.795Z,3.00
2022-11-17T21:23:41.511Z,3.00
2022-11-17T21:26:18.884Z,3.00
2022-11-17T21:28:46.680Z,3.00
2022-11-17T21:31:18.503Z,3.00
2022-11-17T21:33:46.191Z,3.00
2022-11-17T21:36:17.501Z,3.00
2022-11-17T21:38:45.386Z,3.00
2022-11-17T21:41:14.408Z,3.00
2022-11-17T21:43:42.619Z,3.00
2022-11-17T21:46:20.758Z,3.00
2022-11-17T21:48:47.851Z,3.00
2022-11-17T21:51:17.797Z,3.00
2022-11-17T21:53:44.959Z,3.00
2022-11-17T21:56:12.386Z,3.00
2022-11-17T21:58:39.757Z,3.00
2022-11-17T22:01:16.529Z,3.00
2022-11-17T22:03:43.444Z,3.00
2022-11-17T22:06:12.858Z,3.00
2022-11-17T22:08:41.374Z,3.00
2022-11-17T22:11:13.718Z,3.00
2022-11-17T22:13:41.368Z,3.00
2022-11-17T22:16:13.425Z,3.00
2022-11-17T22:18:41.119Z,3.00
2022-11-17T22:21:08.542Z,3.00
2022-11-17T22:23:35.692Z,3.00
2022-11-17T22:26:04.865Z,3.00
2022-11-17T22:28:31.732Z,3.00
2022-11-17T22:30:58.667Z,3.00
2022-11-17T22:33:25.573Z,3.00
2022-11-17T22:35:52.466Z,3.00
2022-11-17T22:38:19.342Z,2.90
2022-11-17T22:40:46.330Z,2.90
2022-11-17T22:43:16.116Z,2.90
2022-11-17T22:45:42.898Z,2.90
2022-11-17T22:48:09.807Z,2.80
2022-11-17T22:50:36.955Z,2.80
2022-11-17T22:53:03.919Z,2.80
2022-11-17T22:55:33.332Z,2.80
2022-11-17T22:58:00.376Z,2.80
2022-11-17T23:00:27.302Z,2.80
2022-11-17T23:02:54.249Z,2.90
2022-11-17T23:05:21.120Z,2.80
2022-11-17T23:07:47.951Z,2.90
2022-11-17T23:10:14.974Z,2.90
2022-11-17T23:12:41.765Z,2.90
2022-11-17T23:15:08.907Z,2.80
2022-11-17T23:17:35.850Z,2.80
2022-11-17T23:20:02.751Z,2.80
2022-11-17T23:22:29.736Z,2.80
2022-11-17T23:24:56.515Z,2.80
2022-11-17T23:27:23.305Z,2.80
2022-11-17T23:29:50.194Z,2.80
2022-11-17T23:32:17.002Z,2.80
2022-11-17T23:34:43.868Z,2.80
2022-11-17T23:37:11.332Z,2.80
2022-11-17T23:39:38.363Z,2.80
2022-11-17T23:42:05.493Z,2.80
2022-11-17T23:44:32.295Z,2.80
2022-11-17T23:46:59.138Z,2.80
2022-11-17T23:49:25.963Z,2.80
2022-11-17T23:51:52.744Z,2.80
2022-11-17T23:54:19.588Z,2.80
2022-11-17T23:56:46.500Z,2.80
2022-11-17T23:59:13.391Z,2.80
